KFPR/FPR METAR and TAF weather

Enter ICAO airport designator
Station Type Date Time Source
KFPR METAR 2021/03/02 16:33 UTC NOAA

KFPR 021633Z 29003KT 10SM SCT027 27/19 A3007 RMK AO2 T02670189


Station Type Date Time Source
KFPR Decoded METAR 2021/03/02 16:33 UTC NOAA

FORT PIERCE ST LUCIE, FL, United States (KFPR) 27-30N 080-23W 13M
Mar 02, 2021 - 11:33 AM EST / 2021.03.02 1633 UTC
Wind: from the WNW (290 degrees) at 3 MPH (3 KT):0
Visibility: 10 mile(s):0
Sky conditions: partly cloudy
Temperature: 80.1 F (26.7 C)
Dew Point: 66.0 F (18.9 C)
Relative Humidity: 62%
Pressure (altimeter): 30.07 in. Hg (1018 hPa)
ob: KFPR 021633Z 29003KT 10SM SCT027 27/19 A3007 RMK AO2 T02670189
cycle: 16

Station Type Date Time Source
KFPR TAF 2021/03/02 12:40 UTC NOAA

TAF KFPR 021138Z 0212/0312 34004KT P6SM SCT025 BKN040
FM021600 07008KT P6SM SCT030 BKN050
FM022200 11006KT P6SM VCSH SCT030 BKN050
FM030200 22005KT P6SM VCSH BKN025 BKN050

Example: see airport list